Terminal Aerodrome Forecast
Issued by NWS North Platte, NE

Home | Current Version | Previous Version | Graphics & Text | Print | Product List | Glossary On
Versions: 1 2 3 4 5 6 7 8 9 10 11 12 13 14 15 16 17 18 19
000
FTUS43 KLBF 250520
TAFVTN
TAF
KVTN 250520Z 2506/2606 12010KT P6SM SCT250
     FM250700 20012KT P6SM FEW250 WS020/21040KT
     FM251100 21010KT P6SM FEW250
     FM252300 18012KT P6SM BKN200=

USA.gov is the U.S. government's official web portal to all federal, state and local government web resources and services.